sensor_id;sensor_type;location;lat;lon;timestamp;P1;durP1;ratioP1;P2;durP2;ratioP2
77788;SDS011;66980;44.384;0.512;2023-03-14T00:02:10;9.63;;;4.95;;
77788;SDS011;66980;44.384;0.512;2023-03-14T00:04:36;8.35;;;4.00;;
77788;SDS011;66980;44.384;0.512;2023-03-14T00:07:02;9.02;;;4.63;;
77788;SDS011;66980;44.384;0.512;2023-03-14T00:09:28;8.57;;;4.47;;
77788;SDS011;66980;44.384;0.512;2023-03-14T00:11:54;10.70;;;4.28;;
77788;SDS011;66980;44.384;0.512;2023-03-14T00:14:20;8.60;;;3.97;;
77788;SDS011;66980;44.384;0.512;2023-03-14T00:16:46;10.75;;;5.05;;
77788;SDS011;66980;44.384;0.512;2023-03-14T00:19:12;7.05;;;3.97;;
77788;SDS011;66980;44.384;0.512;2023-03-14T00:21:37;8.43;;;3.85;;
77788;SDS011;66980;44.384;0.512;2023-03-14T00:24:03;7.78;;;4.68;;
77788;SDS011;66980;44.384;0.512;2023-03-14T00:26:28;6.93;;;3.67;;
77788;SDS011;66980;44.384;0.512;2023-03-14T00:28:54;10.88;;;5.25;;
77788;SDS011;66980;44.384;0.512;2023-03-14T00:31:20;8.40;;;4.00;;
77788;SDS011;66980;44.384;0.512;2023-03-14T00:33:45;10.30;;;4.55;;
77788;SDS011;66980;44.384;0.512;2023-03-14T00:36:15;6.40;;;4.00;;
77788;SDS011;66980;44.384;0.512;2023-03-14T00:38:42;11.73;;;5.13;;
77788;SDS011;66980;44.384;0.512;2023-03-14T00:41:10;9.57;;;5.20;;
77788;SDS011;66980;44.384;0.512;2023-03-14T00:43:38;9.02;;;5.53;;
77788;SDS011;66980;44.384;0.512;2023-03-14T00:46:04;7.07;;;4.65;;
77788;SDS011;66980;44.384;0.512;2023-03-14T00:48:30;9.63;;;4.85;;
77788;SDS011;66980;44.384;0.512;2023-03-14T00:50:56;10.40;;;4.47;;
77788;SDS011;66980;44.384;0.512;2023-03-14T00:53:21;8.40;;;5.60;;
77788;SDS011;66980;44.384;0.512;2023-03-14T00:55:48;10.15;;;4.90;;
77788;SDS011;66980;44.384;0.512;2023-03-14T00:58:15;9.85;;;5.82;;
77788;SDS011;66980;44.384;0.512;2023-03-14T01:00:41;10.98;;;4.43;;
77788;SDS011;66980;44.384;0.512;2023-03-14T01:03:08;13.18;;;4.82;;
77788;SDS011;66980;44.384;0.512;2023-03-14T01:05:34;11.40;;;4.95;;
77788;SDS011;66980;44.384;0.512;2023-03-14T01:07:59;9.85;;;4.93;;
77788;SDS011;66980;44.384;0.512;2023-03-14T01:10:25;8.50;;;5.20;;
77788;SDS011;66980;44.384;0.512;2023-03-14T01:12:51;10.90;;;5.00;;
77788;SDS011;66980;44.384;0.512;2023-03-14T01:15:17;7.47;;;4.43;;
77788;SDS011;66980;44.384;0.512;2023-03-14T01:17:43;9.85;;;5.15;;
77788;SDS011;66980;44.384;0.512;2023-03-14T01:20:10;9.30;;;5.35;;
77788;SDS011;66980;44.384;0.512;2023-03-14T01:22:38;10.98;;;6.28;;
77788;SDS011;66980;44.384;0.512;2023-03-14T01:25:08;10.43;;;6.20;;
77788;SDS011;66980;44.384;0.512;2023-03-14T01:27:35;9.90;;;6.15;;
77788;SDS011;66980;44.384;0.512;2023-03-14T01:30:00;11.15;;;5.97;;
77788;SDS011;66980;44.384;0.512;2023-03-14T01:32:27;9.93;;;6.25;;
77788;SDS011;66980;44.384;0.512;2023-03-14T01:34:52;13.05;;;5.82;;
77788;SDS011;66980;44.384;0.512;2023-03-14T01:37:18;11.38;;;5.90;;
77788;SDS011;66980;44.384;0.512;2023-03-14T01:39:43;13.18;;;5.97;;
77788;SDS011;66980;44.384;0.512;2023-03-14T01:44:53;12.68;;;6.25;;
77788;SDS011;66980;44.384;0.512;2023-03-14T01:47:20;14.90;;;7.80;;
77788;SDS011;66980;44.384;0.512;2023-03-14T01:49:47;9.10;;;5.10;;
77788;SDS011;66980;44.384;0.512;2023-03-14T01:52:35;7.88;;;4.72;;
77788;SDS011;66980;44.384;0.512;2023-03-14T01:55:09;11.32;;;7.25;;
77788;SDS011;66980;44.384;0.512;2023-03-14T01:57:44;14.73;;;7.47;;
77788;SDS011;66980;44.384;0.512;2023-03-14T02:00:15;11.35;;;5.90;;
77788;SDS011;66980;44.384;0.512;2023-03-14T02:02:46;13.07;;;6.75;;
77788;SDS011;66980;44.384;0.512;2023-03-14T02:05:16;10.52;;;5.55;;
77788;SDS011;66980;44.384;0.512;2023-03-14T02:07:48;12.07;;;6.57;;
77788;SDS011;66980;44.384;0.512;2023-03-14T02:10:17;12.55;;;6.38;;
77788;SDS011;66980;44.384;0.512;2023-03-14T02:12:45;12.93;;;6.22;;
77788;SDS011;66980;44.384;0.512;2023-03-14T02:15:12;14.35;;;5.90;;
77788;SDS011;66980;44.384;0.512;2023-03-14T02:17:37;13.52;;;7.88;;
77788;SDS011;66980;44.384;0.512;2023-03-14T02:23:09;15.75;;;6.35;;
77788;SDS011;66980;44.384;0.512;2023-03-14T02:28:10;12.13;;;6.78;;
77788;SDS011;66980;44.384;0.512;2023-03-14T02:30:37;11.43;;;6.35;;
77788;SDS011;66980;44.384;0.512;2023-03-14T02:33:03;13.07;;;5.95;;
77788;SDS011;66980;44.384;0.512;2023-03-14T02:35:40;14.32;;;7.53;;
77788;SDS011;66980;44.384;0.512;2023-03-14T02:41:02;17.30;;;7.90;;
77788;SDS011;66980;44.384;0.512;2023-03-14T02:43:28;16.15;;;7.07;;
77788;SDS011;66980;44.384;0.512;2023-03-14T02:45:53;14.43;;;7.05;;
77788;SDS011;66980;44.384;0.512;2023-03-14T02:50:45;16.42;;;8.50;;
77788;SDS011;66980;44.384;0.512;2023-03-14T02:55:44;13.60;;;7.72;;
77788;SDS011;66980;44.384;0.512;2023-03-14T02:58:10;13.93;;;6.88;;
77788;SDS011;66980;44.384;0.512;2023-03-14T03:00:35;17.15;;;8.60;;
77788;SDS011;66980;44.384;0.512;2023-03-14T03:03:01;14.18;;;7.90;;
77788;SDS011;66980;44.384;0.512;2023-03-14T03:05:26;15.38;;;7.72;;
77788;SDS011;66980;44.384;0.512;2023-03-14T03:07:52;16.25;;;9.20;;
77788;SDS011;66980;44.384;0.512;2023-03-14T03:10:17;16.27;;;8.40;;
77788;SDS011;66980;44.384;0.512;2023-03-14T03:12:43;16.77;;;7.88;;
77788;SDS011;66980;44.384;0.512;2023-03-14T03:15:09;13.05;;;6.90;;
77788;SDS011;66980;44.384;0.512;2023-03-14T03:17:35;14.45;;;7.35;;
77788;SDS011;66980;44.384;0.512;2023-03-14T03:20:00;14.27;;;7.25;;
77788;SDS011;66980;44.384;0.512;2023-03-14T03:22:26;19.00;;;10.73;;
77788;SDS011;66980;44.384;0.512;2023-03-14T03:24:51;12.63;;;7.07;;
77788;SDS011;66980;44.384;0.512;2023-03-14T03:27:16;19.92;;;9.00;;
77788;SDS011;66980;44.384;0.512;2023-03-14T03:29:42;13.43;;;7.18;;
77788;SDS011;66980;44.384;0.512;2023-03-14T03:32:08;14.93;;;7.18;;
77788;SDS011;66980;44.384;0.512;2023-03-14T03:34:33;14.18;;;8.75;;
77788;SDS011;66980;44.384;0.512;2023-03-14T03:37:00;13.63;;;8.35;;
77788;SDS011;66980;44.384;0.512;2023-03-14T03:39:25;12.82;;;7.35;;
77788;SDS011;66980;44.384;0.512;2023-03-14T03:41:50;13.40;;;7.20;;
77788;SDS011;66980;44.384;0.512;2023-03-14T03:44:16;18.05;;;8.40;;
77788;SDS011;66980;44.384;0.512;2023-03-14T03:46:41;16.35;;;8.13;;
77788;SDS011;66980;44.384;0.512;2023-03-14T03:49:07;14.88;;;7.60;;
77788;SDS011;66980;44.384;0.512;2023-03-14T03:51:32;14.93;;;8.57;;
77788;SDS011;66980;44.384;0.512;2023-03-14T03:53:58;16.08;;;8.40;;
77788;SDS011;66980;44.384;0.512;2023-03-14T03:56:23;16.13;;;8.68;;
77788;SDS011;66980;44.384;0.512;2023-03-14T03:58:49;13.85;;;8.25;;
77788;SDS011;66980;44.384;0.512;2023-03-14T04:01:14;15.32;;;7.55;;
77788;SDS011;66980;44.384;0.512;2023-03-14T04:03:39;17.65;;;8.50;;
77788;SDS011;66980;44.384;0.512;2023-03-14T04:06:06;14.05;;;7.90;;
77788;SDS011;66980;44.384;0.512;2023-03-14T04:08:34;13.10;;;7.97;;
77788;SDS011;66980;44.384;0.512;2023-03-14T04:11:00;16.05;;;8.25;;
77788;SDS011;66980;44.384;0.512;2023-03-14T04:13:27;16.58;;;9.48;;
77788;SDS011;66980;44.384;0.512;2023-03-14T04:15:53;15.15;;;7.63;;
77788;SDS011;66980;44.384;0.512;2023-03-14T04:18:20;15.60;;;8.73;;
77788;SDS011;66980;44.384;0.512;2023-03-14T04:20:45;13.05;;;8.27;;
77788;SDS011;66980;44.384;0.512;2023-03-14T04:23:16;15.30;;;7.53;;
77788;SDS011;66980;44.384;0.512;2023-03-14T04:25:41;12.48;;;8.50;;
77788;SDS011;66980;44.384;0.512;2023-03-14T04:28:07;16.80;;;8.27;;
77788;SDS011;66980;44.384;0.512;2023-03-14T04:30:32;17.25;;;8.57;;
77788;SDS011;66980;44.384;0.512;2023-03-14T04:32:58;17.42;;;7.43;;
77788;SDS011;66980;44.384;0.512;2023-03-14T04:35:23;15.88;;;8.52;;
77788;SDS011;66980;44.384;0.512;2023-03-14T04:37:49;12.75;;;6.88;;
77788;SDS011;66980;44.384;0.512;2023-03-14T04:40:16;13.95;;;7.15;;
77788;SDS011;66980;44.384;0.512;2023-03-14T04:42:42;18.55;;;7.68;;
77788;SDS011;66980;44.384;0.512;2023-03-14T04:45:08;10.57;;;6.47;;
77788;SDS011;66980;44.384;0.512;2023-03-14T04:47:34;14.13;;;6.75;;
77788;SDS011;66980;44.384;0.512;2023-03-14T04:50:00;15.73;;;7.28;;
77788;SDS011;66980;44.384;0.512;2023-03-14T04:52:26;14.15;;;7.20;;
77788;SDS011;66980;44.384;0.512;2023-03-14T04:54:52;15.18;;;7.40;;
77788;SDS011;66980;44.384;0.512;2023-03-14T04:57:17;14.27;;;6.93;;
77788;SDS011;66980;44.384;0.512;2023-03-14T04:59:43;11.25;;;6.57;;
77788;SDS011;66980;44.384;0.512;2023-03-14T05:02:08;12.93;;;6.53;;
77788;SDS011;66980;44.384;0.512;2023-03-14T05:04:34;12.52;;;5.88;;
77788;SDS011;66980;44.384;0.512;2023-03-14T05:06:59;11.00;;;6.82;;
77788;SDS011;66980;44.384;0.512;2023-03-14T05:09:25;11.35;;;5.75;;
77788;SDS011;66980;44.384;0.512;2023-03-14T05:11:51;15.13;;;6.15;;
77788;SDS011;66980;44.384;0.512;2023-03-14T05:14:17;12.25;;;6.15;;
77788;SDS011;66980;44.384;0.512;2023-03-14T05:16:42;11.65;;;5.47;;
77788;SDS011;66980;44.384;0.512;2023-03-14T05:19:07;15.10;;;6.65;;
77788;SDS011;66980;44.384;0.512;2023-03-14T05:21:33;12.70;;;6.38;;
77788;SDS011;66980;44.384;0.512;2023-03-14T05:23:58;13.05;;;7.45;;
77788;SDS011;66980;44.384;0.512;2023-03-14T05:26:24;11.77;;;5.57;;
77788;SDS011;66980;44.384;0.512;2023-03-14T05:28:49;13.45;;;7.13;;
77788;SDS011;66980;44.384;0.512;2023-03-14T05:31:15;10.20;;;7.28;;
77788;SDS011;66980;44.384;0.512;2023-03-14T05:33:40;13.65;;;6.85;;
77788;SDS011;66980;44.384;0.512;2023-03-14T05:36:06;12.02;;;6.28;;
77788;SDS011;66980;44.384;0.512;2023-03-14T05:38:32;11.52;;;6.47;;
77788;SDS011;66980;44.384;0.512;2023-03-14T05:40:57;12.63;;;5.90;;
77788;SDS011;66980;44.384;0.512;2023-03-14T05:43:23;11.38;;;4.97;;
77788;SDS011;66980;44.384;0.512;2023-03-14T05:45:48;9.68;;;5.40;;
77788;SDS011;66980;44.384;0.512;2023-03-14T05:48:14;13.70;;;5.43;;
77788;SDS011;66980;44.384;0.512;2023-03-14T05:50:39;12.45;;;6.85;;
77788;SDS011;66980;44.384;0.512;2023-03-14T05:53:05;7.85;;;4.18;;
77788;SDS011;66980;44.384;0.512;2023-03-14T05:55:30;15.30;;;6.18;;
77788;SDS011;66980;44.384;0.512;2023-03-14T05:57:56;13.63;;;5.85;;
77788;SDS011;66980;44.384;0.512;2023-03-14T06:00:21;12.60;;;5.40;;
77788;SDS011;66980;44.384;0.512;2023-03-14T06:02:47;9.75;;;4.35;;
77788;SDS011;66980;44.384;0.512;2023-03-14T06:05:13;11.52;;;5.95;;
77788;SDS011;66980;44.384;0.512;2023-03-14T06:07:38;9.68;;;4.78;;
77788;SDS011;66980;44.384;0.512;2023-03-14T06:10:04;12.77;;;5.07;;
77788;SDS011;66980;44.384;0.512;2023-03-14T06:12:30;10.40;;;5.90;;
77788;SDS011;66980;44.384;0.512;2023-03-14T06:14:55;10.20;;;5.00;;
77788;SDS011;66980;44.384;0.512;2023-03-14T06:17:21;12.95;;;6.15;;
77788;SDS011;66980;44.384;0.512;2023-03-14T06:19:46;11.93;;;5.65;;
77788;SDS011;66980;44.384;0.512;2023-03-14T06:22:12;12.40;;;5.22;;
77788;SDS011;66980;44.384;0.512;2023-03-14T06:24:38;9.25;;;4.28;;
77788;SDS011;66980;44.384;0.512;2023-03-14T06:27:04;8.65;;;4.75;;
77788;SDS011;66980;44.384;0.512;2023-03-14T06:29:29;12.57;;;5.30;;
77788;SDS011;66980;44.384;0.512;2023-03-14T06:31:55;12.30;;;3.97;;
77788;SDS011;66980;44.384;0.512;2023-03-14T06:34:20;8.93;;;4.35;;
77788;SDS011;66980;44.384;0.512;2023-03-14T06:36:46;15.98;;;6.07;;
77788;SDS011;66980;44.384;0.512;2023-03-14T06:39:12;13.00;;;5.68;;
77788;SDS011;66980;44.384;0.512;2023-03-14T06:41:38;10.40;;;4.90;;
77788;SDS011;66980;44.384;0.512;2023-03-14T06:44:03;9.75;;;5.00;;
77788;SDS011;66980;44.384;0.512;2023-03-14T06:46:29;9.93;;;5.30;;
77788;SDS011;66980;44.384;0.512;2023-03-14T06:48:54;12.30;;;4.28;;
77788;SDS011;66980;44.384;0.512;2023-03-14T06:51:20;8.18;;;4.10;;
77788;SDS011;66980;44.384;0.512;2023-03-14T06:53:46;11.60;;;3.90;;
77788;SDS011;66980;44.384;0.512;2023-03-14T06:56:11;9.80;;;4.47;;
77788;SDS011;66980;44.384;0.512;2023-03-14T06:58:36;10.60;;;3.85;;
77788;SDS011;66980;44.384;0.512;2023-03-14T07:01:02;9.73;;;5.22;;
77788;SDS011;66980;44.384;0.512;2023-03-14T07:03:28;10.57;;;4.85;;
77788;SDS011;66980;44.384;0.512;2023-03-14T07:05:54;12.50;;;5.10;;
77788;SDS011;66980;44.384;0.512;2023-03-14T07:08:19;9.63;;;4.38;;
77788;SDS011;66980;44.384;0.512;2023-03-14T07:10:45;12.80;;;5.13;;
77788;SDS011;66980;44.384;0.512;2023-03-14T07:13:10;12.20;;;4.82;;
77788;SDS011;66980;44.384;0.512;2023-03-14T07:15:36;10.25;;;4.80;;
77788;SDS011;66980;44.384;0.512;2023-03-14T07:18:01;10.05;;;3.85;;
77788;SDS011;66980;44.384;0.512;2023-03-14T07:20:27;8.50;;;4.53;;
77788;SDS011;66980;44.384;0.512;2023-03-14T07:22:52;10.85;;;4.05;;
77788;SDS011;66980;44.384;0.512;2023-03-14T07:25:18;11.75;;;4.45;;
77788;SDS011;66980;44.384;0.512;2023-03-14T07:27:44;14.57;;;3.65;;
77788;SDS011;66980;44.384;0.512;2023-03-14T07:30:10;12.15;;;4.03;;
77788;SDS011;66980;44.384;0.512;2023-03-14T07:32:36;19.85;;;4.65;;
77788;SDS011;66980;44.384;0.512;2023-03-14T07:35:02;9.85;;;4.70;;
77788;SDS011;66980;44.384;0.512;2023-03-14T07:37:27;9.00;;;4.97;;
77788;SDS011;66980;44.384;0.512;2023-03-14T07:39:53;10.73;;;4.30;;
77788;SDS011;66980;44.384;0.512;2023-03-14T07:42:18;8.43;;;3.88;;
77788;SDS011;66980;44.384;0.512;2023-03-14T07:44:44;10.00;;;4.72;;
77788;SDS011;66980;44.384;0.512;2023-03-14T07:47:09;11.00;;;5.18;;
77788;SDS011;66980;44.384;0.512;2023-03-14T07:49:35;8.35;;;4.72;;
77788;SDS011;66980;44.384;0.512;2023-03-14T07:52:00;14.23;;;4.38;;
77788;SDS011;66980;44.384;0.512;2023-03-14T07:54:26;12.50;;;4.43;;
77788;SDS011;66980;44.384;0.512;2023-03-14T07:56:51;7.50;;;3.22;;
77788;SDS011;66980;44.384;0.512;2023-03-14T07:59:17;10.52;;;3.92;;
77788;SDS011;66980;44.384;0.512;2023-03-14T08:01:43;14.98;;;7.38;;
77788;SDS011;66980;44.384;0.512;2023-03-14T08:04:09;16.30;;;6.22;;
77788;SDS011;66980;44.384;0.512;2023-03-14T08:06:35;13.45;;;5.60;;
77788;SDS011;66980;44.384;0.512;2023-03-14T08:09:02;11.05;;;5.57;;
77788;SDS011;66980;44.384;0.512;2023-03-14T08:11:27;10.40;;;6.10;;
77788;SDS011;66980;44.384;0.512;2023-03-14T08:13:53;16.02;;;7.80;;
77788;SDS011;66980;44.384;0.512;2023-03-14T08:16:18;14.07;;;7.95;;
77788;SDS011;66980;44.384;0.512;2023-03-14T08:18:44;14.68;;;6.63;;
77788;SDS011;66980;44.384;0.512;2023-03-14T08:21:10;14.40;;;8.52;;
77788;SDS011;66980;44.384;0.512;2023-03-14T08:23:36;15.77;;;6.60;;
77788;SDS011;66980;44.384;0.512;2023-03-14T08:26:02;13.05;;;7.30;;
77788;SDS011;66980;44.384;0.512;2023-03-14T08:28:27;13.10;;;5.88;;
77788;SDS011;66980;44.384;0.512;2023-03-14T08:30:58;12.18;;;6.35;;
77788;SDS011;66980;44.384;0.512;2023-03-14T08:33:25;11.70;;;5.68;;
77788;SDS011;66980;44.384;0.512;2023-03-14T08:35:52;13.00;;;6.28;;
77788;SDS011;66980;44.384;0.512;2023-03-14T08:38:18;12.73;;;6.05;;
77788;SDS011;66980;44.384;0.512;2023-03-14T08:40:44;10.30;;;4.78;;
77788;SDS011;66980;44.384;0.512;2023-03-14T08:43:10;13.05;;;7.53;;
77788;SDS011;66980;44.384;0.512;2023-03-14T08:45:35;10.32;;;4.80;;
77788;SDS011;66980;44.384;0.512;2023-03-14T08:48:01;6.70;;;4.32;;
77788;SDS011;66980;44.384;0.512;2023-03-14T08:50:26;8.95;;;4.68;;
77788;SDS011;66980;44.384;0.512;2023-03-14T08:52:52;10.05;;;3.83;;
77788;SDS011;66980;44.384;0.512;2023-03-14T08:55:17;14.57;;;4.75;;
77788;SDS011;66980;44.384;0.512;2023-03-14T08:57:43;10.77;;;4.05;;
77788;SDS011;66980;44.384;0.512;2023-03-14T09:00:09;8.48;;;4.55;;
77788;SDS011;66980;44.384;0.512;2023-03-14T09:02:42;10.35;;;3.67;;
77788;SDS011;66980;44.384;0.512;2023-03-14T09:05:08;11.13;;;3.78;;
77788;SDS011;66980;44.384;0.512;2023-03-14T09:07:35;19.50;;;5.75;;
77788;SDS011;66980;44.384;0.512;2023-03-14T09:10:01;14.00;;;5.22;;
77788;SDS011;66980;44.384;0.512;2023-03-14T09:12:27;11.55;;;5.20;;
77788;SDS011;66980;44.384;0.512;2023-03-14T09:14:53;11.90;;;6.00;;
77788;SDS011;66980;44.384;0.512;2023-03-14T09:19:48;16.13;;;5.25;;
77788;SDS011;66980;44.384;0.512;2023-03-14T09:22:14;11.57;;;4.75;;
77788;SDS011;66980;44.384;0.512;2023-03-14T09:24:40;9.82;;;4.18;;
77788;SDS011;66980;44.384;0.512;2023-03-14T09:27:07;9.18;;;4.38;;
77788;SDS011;66980;44.384;0.512;2023-03-14T09:29:33;13.82;;;4.63;;
77788;SDS011;66980;44.384;0.512;2023-03-14T09:31:59;12.95;;;4.95;;
77788;SDS011;66980;44.384;0.512;2023-03-14T09:34:25;14.98;;;5.40;;
77788;SDS011;66980;44.384;0.512;2023-03-14T09:36:51;9.55;;;3.85;;
77788;SDS011;66980;44.384;0.512;2023-03-14T09:39:16;14.68;;;5.13;;
77788;SDS011;66980;44.384;0.512;2023-03-14T09:41:49;9.88;;;4.00;;
77788;SDS011;66980;44.384;0.512;2023-03-14T09:44:29;20.00;;;4.68;;
77788;SDS011;66980;44.384;0.512;2023-03-14T09:47:02;13.23;;;3.85;;
77788;SDS011;66980;44.384;0.512;2023-03-14T09:49:34;10.32;;;4.10;;
77788;SDS011;66980;44.384;0.512;2023-03-14T09:52:05;13.48;;;4.88;;
77788;SDS011;66980;44.384;0.512;2023-03-14T09:54:47;13.20;;;4.65;;
77788;SDS011;66980;44.384;0.512;2023-03-14T09:57:18;12.05;;;4.95;;
77788;SDS011;66980;44.384;0.512;2023-03-14T09:59:46;9.60;;;4.10;;
77788;SDS011;66980;44.384;0.512;2023-03-14T10:02:18;12.05;;;4.05;;
77788;SDS011;66980;44.384;0.512;2023-03-14T10:04:49;11.82;;;3.70;;
77788;SDS011;66980;44.384;0.512;2023-03-14T10:09:57;14.10;;;3.95;;
77788;SDS011;66980;44.384;0.512;2023-03-14T10:12:34;11.90;;;4.15;;
77788;SDS011;66980;44.384;0.512;2023-03-14T10:15:04;8.93;;;3.78;;
77788;SDS011;66980;44.384;0.512;2023-03-14T10:17:38;7.50;;;3.72;;
77788;SDS011;66980;44.384;0.512;2023-03-14T10:20:25;8.57;;;3.75;;
77788;SDS011;66980;44.384;0.512;2023-03-14T10:22:52;10.50;;;3.63;;
77788;SDS011;66980;44.384;0.512;2023-03-14T10:25:26;10.55;;;3.83;;
77788;SDS011;66980;44.384;0.512;2023-03-14T10:27:54;6.07;;;2.85;;
77788;SDS011;66980;44.384;0.512;2023-03-14T10:36:19;4.50;;;2.15;;
77788;SDS011;66980;44.384;0.512;2023-03-14T10:38:47;8.02;;;3.25;;
77788;SDS011;66980;44.384;0.512;2023-03-14T10:41:17;6.55;;;2.78;;
77788;SDS011;66980;44.384;0.512;2023-03-14T10:43:56;7.57;;;3.22;;
77788;SDS011;66980;44.384;0.512;2023-03-14T10:46:24;7.70;;;2.83;;
77788;SDS011;66980;44.384;0.512;2023-03-14T10:48:52;2.92;;;2.30;;
77788;SDS011;66980;44.384;0.512;2023-03-14T10:51:26;5.90;;;2.80;;
77788;SDS011;66980;44.384;0.512;2023-03-14T10:56:33;8.48;;;3.38;;
77788;SDS011;66980;44.384;0.512;2023-03-14T10:59:01;5.43;;;2.42;;
77788;SDS011;66980;44.384;0.512;2023-03-14T11:06:55;8.88;;;3.78;;
77788;SDS011;66980;44.384;0.512;2023-03-14T11:15:02;5.97;;;2.88;;
77788;SDS011;66980;44.384;0.512;2023-03-14T11:21:08;13.25;;;1.95;;
77788;SDS011;66980;44.384;0.512;2023-03-14T11:28:50;10.88;;;2.85;;
77788;SDS011;66980;44.384;0.512;2023-03-14T11:31:27;7.50;;;2.85;;
77788;SDS011;66980;44.384;0.512;2023-03-14T11:34:40;12.50;;;2.83;;
77788;SDS011;66980;44.384;0.512;2023-03-14T11:36:53;9.18;;;2.35;;
77788;SDS011;66980;44.384;0.512;2023-03-14T11:39:22;15.10;;;3.28;;
77788;SDS011;66980;44.384;0.512;2023-03-14T11:41:52;9.52;;;2.30;;
77788;SDS011;66980;44.384;0.512;2023-03-14T11:44:25;12.88;;;2.90;;
77788;SDS011;66980;44.384;0.512;2023-03-14T11:51:58;23.80;;;2.97;;
77788;SDS011;66980;44.384;0.512;2023-03-14T11:56:58;24.85;;;3.03;;
77788;SDS011;66980;44.384;0.512;2023-03-14T12:01:58;13.30;;;3.15;;
77788;SDS011;66980;44.384;0.512;2023-03-14T12:04:39;11.00;;;2.65;;
77788;SDS011;66980;44.384;0.512;2023-03-14T12:07:17;14.27;;;2.30;;
77788;SDS011;66980;44.384;0.512;2023-03-14T12:09:53;14.68;;;2.60;;
77788;SDS011;66980;44.384;0.512;2023-03-14T12:12:21;8.55;;;2.60;;
77788;SDS011;66980;44.384;0.512;2023-03-14T12:14:53;5.78;;;2.78;;
77788;SDS011;66980;44.384;0.512;2023-03-14T12:17:22;14.02;;;3.83;;
77788;SDS011;66980;44.384;0.512;2023-03-14T12:20:01;16.60;;;5.55;;
77788;SDS011;66980;44.384;0.512;2023-03-14T12:22:45;11.85;;;4.18;;
77788;SDS011;66980;44.384;0.512;2023-03-14T12:25:23;10.48;;;4.43;;
77788;SDS011;66980;44.384;0.512;2023-03-14T12:30:38;8.25;;;4.43;;
77788;SDS011;66980;44.384;0.512;2023-03-14T12:35:43;14.75;;;5.80;;
77788;SDS011;66980;44.384;0.512;2023-03-14T12:38:15;16.33;;;6.10;;
77788;SDS011;66980;44.384;0.512;2023-03-14T12:41:29;15.15;;;5.35;;
77788;SDS011;66980;44.384;0.512;2023-03-14T12:43:32;15.95;;;5.68;;
77788;SDS011;66980;44.384;0.512;2023-03-14T12:46:21;9.18;;;5.25;;
77788;SDS011;66980;44.384;0.512;2023-03-14T12:48:49;11.63;;;6.35;;
77788;SDS011;66980;44.384;0.512;2023-03-14T12:51:18;12.25;;;5.43;;
77788;SDS011;66980;44.384;0.512;2023-03-14T12:53:50;10.70;;;5.28;;
77788;SDS011;66980;44.384;0.512;2023-03-14T12:56:24;10.80;;;5.55;;
77788;SDS011;66980;44.384;0.512;2023-03-14T12:59:05;13.52;;;5.63;;
77788;SDS011;66980;44.384;0.512;2023-03-14T13:01:54;10.48;;;5.57;;
77788;SDS011;66980;44.384;0.512;2023-03-14T13:04:29;10.43;;;5.07;;
77788;SDS011;66980;44.384;0.512;2023-03-14T13:07:13;15.55;;;6.43;;
77788;SDS011;66980;44.384;0.512;2023-03-14T13:10:02;11.65;;;6.40;;
77788;SDS011;66980;44.384;0.512;2023-03-14T13:12:29;9.95;;;5.38;;
77788;SDS011;66980;44.384;0.512;2023-03-14T13:15:29;14.30;;;6.22;;
77788;SDS011;66980;44.384;0.512;2023-03-14T13:18:10;20.52;;;4.95;;
77788;SDS011;66980;44.384;0.512;2023-03-14T13:20:39;12.98;;;6.43;;
77788;SDS011;66980;44.384;0.512;2023-03-14T13:23:19;10.00;;;6.43;;
77788;SDS011;66980;44.384;0.512;2023-03-14T13:25:49;10.05;;;5.43;;
77788;SDS011;66980;44.384;0.512;2023-03-14T13:28:16;13.63;;;5.32;;
77788;SDS011;66980;44.384;0.512;2023-03-14T13:30:43;10.05;;;4.75;;
77788;SDS011;66980;44.384;0.512;2023-03-14T13:33:17;13.05;;;4.95;;
77788;SDS011;66980;44.384;0.512;2023-03-14T13:35:46;7.57;;;4.95;;
77788;SDS011;66980;44.384;0.512;2023-03-14T13:38:20;12.90;;;4.80;;
77788;SDS011;66980;44.384;0.512;2023-03-14T13:40:48;9.45;;;4.25;;
77788;SDS011;66980;44.384;0.512;2023-03-14T13:46:10;8.77;;;4.20;;
77788;SDS011;66980;44.384;0.512;2023-03-14T13:48:42;8.68;;;4.13;;
77788;SDS011;66980;44.384;0.512;2023-03-14T13:51:11;8.85;;;3.78;;
77788;SDS011;66980;44.384;0.512;2023-03-14T13:53:43;9.63;;;5.47;;
77788;SDS011;66980;44.384;0.512;2023-03-14T13:56:10;7.93;;;4.22;;
77788;SDS011;66980;44.384;0.512;2023-03-14T13:58:36;6.10;;;3.63;;
77788;SDS011;66980;44.384;0.512;2023-03-14T14:03:32;7.38;;;3.63;;
77788;SDS011;66980;44.384;0.512;2023-03-14T14:06:01;7.15;;;3.55;;
77788;SDS011;66980;44.384;0.512;2023-03-14T14:08:27;6.90;;;3.67;;
77788;SDS011;66980;44.384;0.512;2023-03-14T14:10:57;7.97;;;4.20;;
77788;SDS011;66980;44.384;0.512;2023-03-14T14:13:25;10.18;;;4.45;;
77788;SDS011;66980;44.384;0.512;2023-03-14T14:15:55;6.63;;;3.45;;
77788;SDS011;66980;44.384;0.512;2023-03-14T14:18:24;6.10;;;3.67;;
77788;SDS011;66980;44.384;0.512;2023-03-14T14:20:52;7.30;;;3.58;;
77788;SDS011;66980;44.384;0.512;2023-03-14T14:23:19;8.35;;;3.67;;
77788;SDS011;66980;44.384;0.512;2023-03-14T14:25:51;5.18;;;3.03;;
77788;SDS011;66980;44.384;0.512;2023-03-14T14:28:23;5.10;;;3.47;;
77788;SDS011;66980;44.384;0.512;2023-03-14T14:36:13;6.55;;;2.60;;
77788;SDS011;66980;44.384;0.512;2023-03-14T14:38:48;3.63;;;2.55;;
77788;SDS011;66980;44.384;0.512;2023-03-14T14:41:15;5.13;;;2.10;;
77788;SDS011;66980;44.384;0.512;2023-03-14T14:43:41;6.57;;;2.75;;
77788;SDS011;66980;44.384;0.512;2023-03-14T14:46:07;5.80;;;2.65;;
77788;SDS011;66980;44.384;0.512;2023-03-14T14:48:37;9.25;;;2.10;;
77788;SDS011;66980;44.384;0.512;2023-03-14T14:51:04;4.45;;;1.92;;
77788;SDS011;66980;44.384;0.512;2023-03-14T14:53:36;4.85;;;1.55;;
77788;SDS011;66980;44.384;0.512;2023-03-14T14:58:51;3.25;;;1.60;;
77788;SDS011;66980;44.384;0.512;2023-03-14T15:01:30;7.05;;;2.00;;
77788;SDS011;66980;44.384;0.512;2023-03-14T15:03:59;2.78;;;1.40;;
77788;SDS011;66980;44.384;0.512;2023-03-14T15:06:26;2.47;;;1.88;;
77788;SDS011;66980;44.384;0.512;2023-03-14T15:08:54;7.25;;;2.22;;
77788;SDS011;66980;44.384;0.512;2023-03-14T15:11:23;3.60;;;1.73;;
77788;SDS011;66980;44.384;0.512;2023-03-14T15:13:51;2.63;;;1.42;;
77788;SDS011;66980;44.384;0.512;2023-03-14T15:16:18;5.18;;;2.38;;
77788;SDS011;66980;44.384;0.512;2023-03-14T15:18:50;3.78;;;1.80;;
77788;SDS011;66980;44.384;0.512;2023-03-14T15:21:22;7.22;;;2.03;;
77788;SDS011;66980;44.384;0.512;2023-03-14T15:23:49;3.65;;;1.52;;
77788;SDS011;66980;44.384;0.512;2023-03-14T15:26:16;3.22;;;1.30;;
77788;SDS011;66980;44.384;0.512;2023-03-14T15:28:44;4.00;;;2.40;;
77788;SDS011;66980;44.384;0.512;2023-03-14T15:31:11;3.47;;;2.50;;
77788;SDS011;66980;44.384;0.512;2023-03-14T15:33:37;4.82;;;2.25;;
77788;SDS011;66980;44.384;0.512;2023-03-14T15:36:16;3.90;;;2.58;;
77788;SDS011;66980;44.384;0.512;2023-03-14T15:38:43;5.55;;;3.25;;
77788;SDS011;66980;44.384;0.512;2023-03-14T15:41:09;3.47;;;2.45;;
77788;SDS011;66980;44.384;0.512;2023-03-14T15:43:34;7.13;;;2.20;;
77788;SDS011;66980;44.384;0.512;2023-03-14T15:46:00;3.58;;;1.90;;
77788;SDS011;66980;44.384;0.512;2023-03-14T15:48:25;7.78;;;1.90;;
77788;SDS011;66980;44.384;0.512;2023-03-14T15:50:51;2.90;;;1.70;;
77788;SDS011;66980;44.384;0.512;2023-03-14T15:53:16;2.50;;;1.63;;
77788;SDS011;66980;44.384;0.512;2023-03-14T15:55:42;3.05;;;1.88;;
77788;SDS011;66980;44.384;0.512;2023-03-14T15:58:09;5.25;;;1.88;;
77788;SDS011;66980;44.384;0.512;2023-03-14T16:00:41;5.05;;;2.47;;
77788;SDS011;66980;44.384;0.512;2023-03-14T16:03:07;4.40;;;1.50;;